Terminal Aerodrome Forecast
Issued by NWS

Home | Current Version | Previous Version | Text Only | Print | Product List | Glossary On
Versions: 1 2 3 4 5 6 7 8 9 10 11 12 13 14 15
000
FTUS46 KLOX 012358
TAFPRB
TAF
KPRB 012358Z 0200/0224 22012KT P6SM FEW050
     FM020400 19006KT P6SM SCT100
     FM022200 20012G20KT P6SM BKN250=

USA.gov is the U.S. government's official web portal to all federal, state and local government web resources and services.